Lanzarote > ESTACION METEOROLÓGICA Costa Teguise - Teguise

DATOS ACTUALES Online

Ultima actulizacion 31 minutos

21.5 ºC

Temperatura

60

Humedad (%)

1017.32

Presión (mb)

0

Precipitación (mm)

37.7 NO

Viento (Km/h)

DATOS DIARIOS

Temperatura últimas 24 horas (ºC)

Humedad últimas 24 horas (%)

Presión atmosférica últimas 24 horas (mb)

Precipitaciones últimas 23 horas (mm)

Viento últimas 24 horas (Km/h)

Hora Temperatura (°C) ºC Precipitación (mm) mm Presión (mb) mb Humedad (%) % Viento (Km/h) km/h
28 - 10:00 21.8 0 1016 64 41.6 N
28 - 11:00 22.4 0 1017 59 39.7 NO
28 - 12:00 22 0 1017 67 39.5 NO
28 - 13:00 22.6 0 1017 58 45.1 NO
28 - 14:00 23 0 1017 58 44.9 NO
28 - 15:00 23.3 0 1016 62 42.3 NO
28 - 16:00 22.4 0 1016 67 46.9 NO
28 - 17:00 22.6 0 1016 64 41.3 NO
28 - 18:00 22.3 0 1016 66 40.8 NO
28 - 19:00 21.8 0 1016 68 41.5 N
28 - 20:00 21.3 0 1016 66 40.5 N
28 - 21:00 21 0 1016 71 46 N
28 - 22:00 20.9 0 1017 72 45.1 N
28 - 23:00 20.6 0 1017 69 46.3 N
29 - 00:00 20.5 0 1017 72 39.2 N
29 - 01:00 20.3 0 1016 71 41.9 N
29 - 02:00 20.2 0 1016 70 43.6 N
29 - 03:00 20 0 1015 70 40.6 N
29 - 04:00 20.2 0 1015 70 32 N
29 - 05:00 20.2 0 1015 68 38.5 N
29 - 06:00 20.1 0 1015 65 37 N
29 - 07:00 20.3 0 1016 67 37 N
29 - 08:00 20.7 0 1017 63 37.7 NO
29 - 09:00 21.1 0 1017 61 38.6 N
29 - 10:00 21.5 0 1017 60 37.7 NO
Apalmet utiliza cookies propias y de terceros para mejorar la usabilidad y la experiencia web. Política de cookies.